Gillisonville, South Carolina
Current Conditions -  °F | °C
As of 7:56 AM on Saturday 20 Dec 2014 (Local Time) from KNBC Reporting Station
Overcast Overcast  
Wind Chill: 51°   Ceiling: 8000
Heat Index: 51°   Visibility: 10mi
Dew Point: 47°   Wind: 5mph
Humidity: 86%   Direction: 60°ENE
Pressure: 30.16"   Gusts: NA
Location:  32.4773°N, 80.9264°W
Report Text: KNBC 201256Z AUTO 06004KT 10SM SCT060 OVC080 11/08 A3016 RMK AO2 RAE29 SLP213 P0001 T01060083 $
Loading
Personal Weather Stations






























Interactive Weather Map New forecast layout! Learn more

10-Day Weather Forecast

Advertisements
Track Severe Weather on mobile